Time;durP1;ratioP1;P1;durP2;ratioP2;P2;SDS_P1;SDS_P2;PMS_P1;PMS_P2;Temp;Humidity;BMP_temperature;BMP_pressure;BME280_temperature;BME280_humidity;BME280_pressure;Samples;Min_cycle;Max_cycle;Signal;HPM_P1;HPM_P2
2021/09/19 00:01:57;;;;;;;1999.90;999.90;;;;;;;15.85;61.22;101423.81;15620955;28;20055;-57
2021/09/19 00:09:29;;;;;;;1999.90;999.90;;;;;;;15.76;61.85;101418.28;15602709;28;20050;-55
2021/09/19 00:17:04;;;;;;;1999.90;999.90;;;;;;;15.83;61.45;101418.50;15621187;28;20049;-56
2021/09/19 00:24:36;;;;;;;1999.90;999.90;;;;;;;15.83;61.16;101407.25;15602710;28;20045;-56
2021/09/19 00:32:10;;;;;;;1999.90;999.90;;;;;;;15.54;61.52;101405.47;15618484;28;20133;-56
2021/09/19 00:39:43;;;;;;;1999.90;999.90;;;;;;;15.59;61.02;101393.97;15624227;28;20043;-56
2021/09/19 00:47:16;;;;;;;1999.90;999.90;;;;;;;15.28;61.74;101399.34;15645620;28;20052;-56
2021/09/19 00:54:50;;;;;;;1999.90;999.90;;;;;;;15.72;61.13;101403.28;15618888;28;20497;-54
2021/09/19 01:02:24;;;;;;;1999.90;999.90;;;;;;;15.73;61.55;101390.03;15616835;28;20073;-59
2021/09/19 01:09:57;;;;;;;1999.90;999.90;;;;;;;15.50;62.76;101393.25;15618283;28;20425;-59
2021/09/19 01:17:30;;;;;;;1999.90;999.90;;;;;;;15.66;62.63;101387.00;15615870;28;20120;-60
2021/09/19 01:25:07;;;;;;;1999.90;999.90;;;;;;;15.48;64.13;101387.19;15615339;28;20046;-59
2021/09/19 01:32:41;;;;;;;1999.90;999.90;;;;;;;15.72;63.04;101382.75;15617274;28;20566;-57
2021/09/19 01:40:14;;;;;;;;;;;;;;;15.65;64.51;101382.53;15571287;23;20041;-53
2021/09/19 01:47:47;;;;;;;1999.90;999.90;;;;;;;15.30;63.56;101377.31;15549500;28;19931;-52
2021/09/19 01:55:20;;;;;;;1999.90;999.90;;;;;;;15.48;64.12;101375.09;15532592;28;20147;-51
2021/09/19 02:02:53;;;;;;;1999.90;999.90;;;;;;;15.28;64.41;101372.03;15532248;28;20168;-52
2021/09/19 02:10:27;;;;;;;1999.90;999.90;;;;;;;15.18;63.12;101352.00;15549276;28;20064;-50
2021/09/19 02:17:59;;;;;;;;;;;;;;;15.47;63.78;101351.78;15550141;28;20034;-55
2021/09/19 02:25:32;;;;;;;1999.90;999.90;;;;;;;15.49;63.89;101343.00;15553280;28;20004;-54
2021/09/19 02:33:04;;;;;;;;;;;;;;;15.54;62.04;101348.41;15561463;28;20042;-54
2021/09/19 02:40:38;;;;;;;1999.90;999.90;;;;;;;15.49;63.94;101357.06;15560999;28;19921;-50
2021/09/19 02:48:10;;;;;;;1999.90;999.90;;;;;;;15.41;64.95;101349.53;15542044;28;20160;-54
2021/09/19 02:55:44;;;;;;;1999.90;999.90;;;;;;;15.40;64.37;101357.16;15542401;28;20056;-54
2021/09/19 03:03:16;;;;;;;;;;;;;;;15.44;64.70;101355.31;15540701;28;20030;-55
2021/09/19 03:10:50;;;;;;;1999.90;999.90;;;;;;;15.39;64.57;101346.28;15558137;28;19929;-50
2021/09/19 03:18:22;;;;;;;1999.90;999.90;;;;;;;15.29;65.00;101347.56;15558768;28;20050;-51
2021/09/19 03:25:56;;;;;;;1999.90;999.90;;;;;;;15.25;64.87;101347.44;15539995;28;20045;-53
2021/09/19 03:33:29;;;;;;;1999.90;999.90;;;;;;;15.33;65.18;101356.13;15557186;28;20050;-54
2021/09/19 03:41:02;;;;;;;1999.90;999.90;;;;;;;15.46;63.91;101364.22;15522063;28;20116;-54
2021/09/19 03:48:35;;;;;;;1999.90;999.90;;;;;;;15.30;65.15;101366.88;15556555;28;20061;-53
2021/09/19 03:56:08;;;;;;;1999.90;999.90;;;;;;;15.33;65.14;101367.38;15556045;28;20533;-58
2021/09/19 04:03:40;;;;;;;;;;;;;;;15.43;64.97;101370.56;15557238;28;20053;-52
2021/09/19 04:11:14;;;;;;;1999.90;999.90;;;;;;;15.30;65.45;101363.25;15555397;28;19925;-54
2021/09/19 04:18:46;;;;;;;1999.90;999.90;;;;;;;15.23;66.79;101369.47;15555527;28;20085;-56
2021/09/19 04:26:19;;;;;;;1999.90;999.90;;;;;;;15.26;66.98;101373.56;15555121;28;20521;-56
2021/09/19 04:33:51;;;;;;;;;;;;;;;15.29;67.15;101384.91;15537329;28;20144;-53
2021/09/19 04:41:44;;;;;;;1999.90;999.90;;;;;;;15.25;66.52;101386.81;15554065;28;19925;-56
2021/09/19 04:49:17;;;;;;;1999.90;999.90;;;;;;;15.18;66.69;101385.72;15552986;28;20049;-56
2021/09/19 04:56:50;;;;;;;1999.90;999.90;;;;;;;15.11;67.68;101377.88;15552860;28;20041;-54
2021/09/19 05:04:22;;;;;;;;;;;;;;;15.10;68.41;101386.63;15553146;28;20058;-52
2021/09/19 05:11:56;;;;;;;1999.90;999.90;;;;;;;15.11;67.99;101383.50;15551984;28;20041;-51
2021/09/19 05:19:28;;;;;;;;;;;;;;;15.09;68.37;101380.19;15533692;28;20046;-55
2021/09/19 05:27:02;;;;;;;1999.90;999.90;;;;;;;15.18;68.29;101388.53;15551011;28;20309;-56
2021/09/19 05:34:35;;;;;;;1999.90;999.90;;;;;;;15.21;67.95;101387.81;15532525;28;20050;-55
2021/09/19 05:42:08;;;;;;;1999.90;999.90;;;;;;;15.13;68.36;101383.97;15532803;28;20100;-56
2021/09/19 05:49:41;;;;;;;1999.90;999.90;;;;;;;15.07;68.39;101388.16;15532399;28;20061;-54
2021/09/19 05:57:21;;;;;;;1999.90;999.90;;;;;;;15.10;68.46;101387.44;15550981;28;20483;-54
2021/09/19 06:04:53;;;;;;;1999.90;999.90;;;;;;;15.38;68.02;101390.44;15569132;28;20049;-53
2021/09/19 06:12:26;;;;;;;1999.90;999.90;;;;;;;15.31;68.22;101385.38;15569608;28;20493;-53
2021/09/19 06:19:59;;;;;;;1999.90;999.90;;;;;;;15.38;67.86;101392.44;15568606;28;20066;-55
2021/09/19 06:27:33;;;;;;;1999.90;999.90;;;;;;;15.62;66.90;101377.59;15568720;28;20046;-54
2021/09/19 06:35:06;;;;;;;1999.90;999.90;;;;;;;15.62;67.07;101383.22;15569121;28;20259;-53
2021/09/19 06:42:39;;;;;;;1999.90;999.90;;;;;;;15.79;66.26;101380.19;15551955;28;20066;-53
2021/09/19 06:50:12;;;;;;;;;;;;;;;15.80;66.97;101385.47;15551749;28;20120;-53
2021/09/19 06:57:46;;;;;;;1999.90;999.90;;;;;;;15.83;66.83;101387.56;15551642;28;20440;-56
2021/09/19 07:05:19;;;;;;;1999.90;999.90;;;;;;;15.80;67.18;101384.63;15568291;28;20065;-55
2021/09/19 07:12:52;;;;;;;1999.90;999.90;;;;;;;15.59;67.83;101393.97;15565918;28;20034;-53
2021/09/19 07:20:25;;;;;;;1999.90;999.90;;;;;;;15.54;68.00;101397.03;15542085;28;20506;-51
2021/09/19 07:27:59;;;;;;;1999.90;999.90;;;;;;;15.52;68.85;101399.34;15518190;28;20133;-51
2021/09/19 07:35:31;;;;;;;1999.90;999.90;;;;;;;15.47;67.39;101395.97;15561611;23;20041;-58
2021/09/19 07:43:07;;;;;;;1999.90;999.90;;;;;;;15.90;66.30;101400.22;15570013;28;20042;-57
2021/09/19 07:50:40;;;;;;;1999.90;999.90;;;;;;;15.78;66.52;101407.50;15613997;28;20073;-56
2021/09/19 07:58:17;;;;;;;1999.90;999.90;;;;;;;15.95;66.13;101408.44;15601792;28;20410;-57
2021/09/19 08:05:49;;;;;;;1999.90;999.90;;;;;;;16.36;64.52;101396.88;15590414;28;20069;-58
2021/09/19 08:13:24;;;;;;;1999.90;999.90;;;;;;;16.86;62.28;101401.19;15600989;28;20050;-57
2021/09/19 08:20:56;;;;;;;1999.90;999.90;;;;;;;17.14;61.74;101403.97;15606184;28;20064;-56
2021/09/19 08:28:30;;;;;;;1999.90;999.90;;;;;;;16.93;59.10;101397.75;15604089;28;20045;-59
2021/09/19 08:36:02;;;;;;;1999.90;999.90;;;;;;;17.02;56.36;101399.22;15604321;28;20049;-60
2021/09/19 08:43:36;;;;;;;1999.90;999.90;;;;;;;17.24;55.38;101409.09;15577262;28;20057;-59
2021/09/19 08:51:09;;;;;;;1999.90;999.90;;;;;;;18.23;54.95;101414.78;15599105;28;20046;-57
2021/09/19 08:58:43;;;;;;;1999.90;999.90;;;;;;;17.70;53.35;101411.50;15576958;28;20049;-59
2021/09/19 09:06:19;;;;;;;1999.90;999.90;;;;;;;17.00;51.82;101417.69;15594953;28;20072;-59
2021/09/19 09:13:52;;;;;;;1999.90;999.90;;;;;;;17.73;50.44;101422.91;15594501;28;20044;-59
2021/09/19 09:21:26;;;;;;;1999.90;999.90;;;;;;;17.94;48.89;101427.44;15614261;28;20300;-55
2021/09/19 09:29:03;;;;;;;1999.90;999.90;;;;;;;18.52;49.48;101417.06;15635752;28;20124;-58
2021/09/19 09:36:39;;;;;;;1999.90;999.90;;;;;;;19.32;47.78;101415.50;15594657;28;20053;-56
2021/09/19 09:44:26;;;;;;;1999.90;999.90;;;;;;;20.10;42.39;101410.34;15589234;28;20042;-57
2021/09/19 09:52:10;;;;;;;1999.90;999.90;;;;;;;19.42;44.01;101414.06;15577759;28;20490;-57
2021/09/19 09:59:45;;;;;;;1999.90;999.90;;;;;;;19.09;43.57;101406.97;15601381;28;20046;-58
2021/09/19 10:07:24;;;;;;;1999.90;999.90;;;;;;;18.26;45.63;101395.13;15574055;28;20051;-55
2021/09/19 10:15:05;;;;;;;1999.90;999.90;;;;;;;18.37;45.49;101404.66;15584167;28;20104;-57
2021/09/19 10:22:47;;;;;;;1999.90;999.90;;;;;;;18.63;47.55;101398.34;15592628;28;20365;-54
2021/09/19 10:30:30;;;;;;;1999.90;999.90;;;;;;;18.07;46.14;101397.91;15603160;28;20050;-58
2021/09/19 10:38:05;;;;;;;1999.90;999.90;;;;;;;18.33;48.64;101408.56;15610435;28;20044;-57
2021/09/19 10:45:42;;;;;;;;;;;;;;;18.14;45.90;101393.25;15619947;28;20045;-58
2021/09/19 10:53:25;;;;;;;1999.90;999.90;;;;;;;17.88;48.15;101384.53;15578196;28;19921;-59
2021/09/19 11:01:22;;;;;;;1999.90;999.90;;;;;;;17.81;47.75;101390.00;15593409;28;20038;-56
2021/09/19 11:09:22;;;;;;;1999.90;999.90;;;;;;;17.84;47.98;101380.81;15619504;28;20041;-55
2021/09/19 11:17:23;;;;;;;1999.90;999.90;;;;;;;18.02;46.43;101390.50;15619751;28;20053;-56
2021/09/19 11:24:56;;;;;;;1999.90;999.90;;;;;;;18.08;46.25;101394.69;15614871;28;20531;-57
2021/09/19 11:32:30;;;;;;;1999.90;999.90;;;;;;;18.35;46.10;101383.63;15639417;28;20064;-57
2021/09/19 11:40:07;;;;;;;1999.90;999.90;;;;;;;18.44;46.86;101387.03;15597729;28;20045;-57
2021/09/19 11:47:40;;;;;;;1999.90;999.90;;;;;;;17.96;45.82;101377.88;15622596;28;20053;-56
2021/09/19 11:55:28;;;;;;;1999.90;999.90;;;;;;;18.39;45.62;101381.66;15604367;28;20051;-56
2021/09/19 12:03:05;;;;;;;1999.90;999.90;;;;;;;18.21;45.33;101384.09;15617999;28;20140;-53
2021/09/19 12:10:38;;;;;;;1999.90;999.90;;;;;;;18.11;45.07;101373.38;15604165;28;20041;-55
2021/09/19 12:18:11;;;;;;;;;;;;;;;18.53;48.33;101369.84;15610504;28;20049;-55
2021/09/19 12:25:47;;;;;;;1999.90;999.90;;;;;;;17.82;47.32;101364.25;15607230;28;19925;-58
2021/09/19 12:33:30;;;;;;;1999.90;999.90;;;;;;;17.88;46.66;101371.25;15599573;28;20099;-56
2021/09/19 12:41:05;;;;;;;1999.90;999.90;;;;;;;17.76;48.08;101364.91;15622008;28;20045;-57
2021/09/19 12:48:38;;;;;;;1999.90;999.90;;;;;;;17.68;47.75;101371.50;15601031;28;20046;-61
2021/09/19 12:56:11;;;;;;;1999.90;999.90;;;;;;;17.80;49.53;101363.78;15609945;28;20049;-60
2021/09/19 13:03:52;;;;;;;1999.90;999.90;;;;;;;17.54;50.03;101361.50;15603462;28;20037;-56
2021/09/19 13:11:44;;;;;;;1999.90;999.90;;;;;;;17.39;50.51;101356.69;15605209;28;20099;-56
2021/09/19 13:19:18;;;;;;;1999.90;999.90;;;;;;;17.92;51.42;101343.06;15616172;28;20467;-58
2021/09/19 13:26:51;;;;;;;1999.90;999.90;;;;;;;17.91;49.34;101343.44;15614056;28;20060;-55
2021/09/19 13:34:33;;;;;;;1999.90;999.90;;;;;;;18.00;48.47;101344.06;15606569;28;20406;-56
2021/09/19 13:42:22;;;;;;;1999.90;999.90;;;;;;;18.25;49.86;101345.47;15492728;28;20263;-53
2021/09/19 13:49:54;;;;;;;1999.90;999.90;;;;;;;17.46;48.85;101336.31;15479066;28;20120;-54
2021/09/19 13:57:28;;;;;;;1999.90;999.90;;;;;;;17.40;48.58;101346.22;15481920;28;20057;-51
2021/09/19 14:05:03;;;;;;;1999.90;999.90;;;;;;;17.46;49.78;101342.75;15483303;28;20044;-55
2021/09/19 14:12:36;;;;;;;1999.90;999.90;;;;;;;17.43;49.26;101351.97;15481033;28;20371;-51
2021/09/19 14:20:12;;;;;;;1999.90;999.90;;;;;;;17.42;51.48;101360.78;15479589;28;20042;-49
2021/09/19 14:27:46;;;;;;;1999.90;999.90;;;;;;;17.77;53.13;101358.88;15494910;28;20484;-52
2021/09/19 14:35:27;;;;;;;1999.90;999.90;;;;;;;17.75;50.88;101357.63;15500703;28;20166;-52
2021/09/19 14:43:00;;;;;;;1999.90;999.90;;;;;;;17.38;50.13;101346.59;15554815;28;20232;-56
2021/09/19 14:50:32;;;;;;;1999.90;999.90;;;;;;;17.10;48.71;101340.22;15550675;28;20046;-51
2021/09/19 14:58:06;;;;;;;1999.90;999.90;;;;;;;17.22;49.72;101342.97;15561155;28;20525;-53
2021/09/19 15:05:39;;;;;;;1999.90;999.90;;;;;;;17.21;49.34;101330.84;15566441;28;20184;-49
2021/09/19 15:13:13;;;;;;;1999.90;999.90;;;;;;;17.71;51.46;101336.94;15554758;28;20482;-50
2021/09/19 15:20:57;;;;;;;1999.90;999.90;;;;;;;18.03;51.62;101343.31;15555125;28;20125;-54
2021/09/19 15:28:36;;;;;;;1999.90;999.90;;;;;;;18.04;51.63;101325.22;15542356;28;20065;-52
2021/09/19 15:36:10;;;;;;;1999.90;999.90;;;;;;;17.82;53.30;101326.72;15534445;28;20298;-51
2021/09/19 15:43:44;;;;;;;1999.90;999.90;;;;;;;17.86;54.54;101328.44;15555440;28;20137;-52
2021/09/19 15:51:17;;;;;;;1999.90;999.90;;;;;;;17.76;56.86;101333.84;15555215;28;20046;-52
2021/09/19 15:58:50;;;;;;;1999.90;999.90;;;;;;;17.51;57.84;101334.03;15554624;28;20046;-52
2021/09/19 16:06:24;;;;;;;1999.90;999.90;;;;;;;17.35;57.37;101329.56;15551120;28;20143;-52
2021/09/19 16:14:02;;;;;;;1999.90;999.90;;;;;;;17.25;58.47;101333.75;15545872;28;20038;-52
2021/09/19 16:21:36;;;;;;;1999.90;999.90;;;;;;;16.89;59.47;101332.84;15544533;28;20430;-50
2021/09/19 16:29:31;;;;;;;1999.90;999.90;;;;;;;16.86;59.13;101335.53;15537002;28;20044;-54
2021/09/19 16:37:03;;;;;;;1999.90;999.90;;;;;;;16.70;58.71;101344.78;15529230;28;20045;-50
2021/09/19 16:44:38;;;;;;;1999.90;999.90;;;;;;;16.75;59.62;101340.88;15541532;28;20140;-57
2021/09/19 16:52:10;;;;;;;1999.90;999.90;;;;;;;16.70;59.19;101341.97;15517360;28;20519;-54
2021/09/19 16:59:47;;;;;;;1999.90;999.90;;;;;;;16.59;58.60;101354.09;15533351;28;20042;-51
2021/09/19 17:07:19;;;;;;;1999.90;999.90;;;;;;;16.28;60.58;101355.59;15543871;28;20495;-50
2021/09/19 17:15:04;;;;;;;1999.90;999.90;;;;;;;16.34;58.52;101358.97;15549783;28;20042;-54
2021/09/19 17:22:36;;;;;;;1999.90;999.90;;;;;;;16.33;59.52;101352.50;15517804;28;20418;-54
2021/09/19 17:30:12;;;;;;;1999.90;999.90;;;;;;;16.50;58.76;101361.88;15532639;28;20518;-51
2021/09/19 17:37:44;;;;;;;1999.90;999.90;;;;;;;16.33;60.26;101357.34;15533310;28;20045;-53
2021/09/19 17:45:24;;;;;;;1999.90;999.90;;;;;;;16.21;59.14;101358.19;15551469;28;20038;-51
2021/09/19 17:53:08;;;;;;;1999.90;999.90;;;;;;;16.22;59.71;101364.63;15523869;28;20050;-54
2021/09/19 18:00:53;;;;;;;1999.90;999.90;;;;;;;16.23;59.43;101375.53;15511705;28;20042;-52
2021/09/19 18:08:29;;;;;;;1999.90;999.90;;;;;;;16.07;60.13;101400.00;15539774;28;20167;-55
2021/09/19 18:16:10;;;;;;;1999.90;999.90;;;;;;;15.95;61.08;101398.00;15549795;28;20082;-49
2021/09/19 18:23:43;;;;;;;1999.90;999.90;;;;;;;15.82;59.19;101394.34;15532321;28;20050;-49
2021/09/19 18:31:19;;;;;;;1999.90;999.90;;;;;;;16.14;59.49;101403.00;15546845;28;20390;-53
2021/09/19 18:38:53;;;;;;;1999.90;999.90;;;;;;;15.86;59.93;101400.94;15527552;28;20050;-53
2021/09/19 18:46:27;;;;;;;1999.90;999.90;;;;;;;15.94;59.54;101404.78;15534314;28;20046;-51
2021/09/19 18:54:03;;;;;;;1999.90;999.90;;;;;;;15.55;60.22;101412.75;15526366;28;20132;-56
2021/09/19 19:01:45;;;;;;;1999.90;999.90;;;;;;;15.47;59.73;101407.22;15536740;28;20085;-49
2021/09/19 19:09:21;;;;;;;1999.90;999.90;;;;;;;15.51;59.19;101420.22;15540976;28;20057;-54
2021/09/19 19:16:59;;;;;;;1999.90;999.90;;;;;;;15.52;59.96;101421.84;15542196;28;20049;-50
2021/09/19 19:24:31;;;;;;;1999.90;999.90;;;;;;;15.25;58.91;101420.53;15546047;28;20042;-56
2021/09/19 19:32:06;;;;;;;1999.90;999.90;;;;;;;15.58;58.62;101425.28;15546840;28;20054;-52
2021/09/19 19:39:41;;;;;;;1999.90;999.90;;;;;;;15.45;58.31;101438.50;15542486;23;20108;-61
2021/09/19 19:47:23;;;;;;;1999.90;999.90;;;;;;;15.34;58.63;101434.50;15551772;28;20057;-58
2021/09/19 19:55:01;;;;;;;1999.90;999.90;;;;;;;15.58;59.73;101453.41;15533756;28;20421;-60
2021/09/19 20:02:54;;;;;;;1999.90;999.90;;;;;;;15.27;59.75;101448.31;15555606;28;20046;-61
2021/09/19 20:10:30;;;;;;;1999.90;999.90;;;;;;;15.57;59.69;101446.97;15512171;28;20069;-57
2021/09/19 20:18:05;;;;;;;1999.90;999.90;;;;;;;15.33;59.43;101454.53;15541788;28;20421;-58
2021/09/19 20:25:37;;;;;;;1999.90;999.90;;;;;;;15.43;60.96;101451.28;15538363;28;20293;-59
2021/09/19 20:33:22;;;;;;;1999.90;999.90;;;;;;;15.49;60.20;101453.50;15541463;28;20101;-58
2021/09/19 20:40:56;;;;;;;1999.90;999.90;;;;;;;15.13;61.37;101448.63;15557661;28;20105;-61
2021/09/19 20:48:31;;;;;;;1999.90;999.90;;;;;;;15.32;61.91;101456.53;15557799;28;20053;-61
2021/09/19 20:56:09;;;;;;;1999.90;999.90;;;;;;;15.05;61.71;101455.16;15536777;28;20684;-60
2021/09/19 21:03:42;;;;;;;1999.90;999.90;;;;;;;15.06;61.58;101465.22;15537837;28;20096;-57
2021/09/19 21:11:15;;;;;;;1999.90;999.90;;;;;;;14.99;61.56;101465.75;15588309;28;20515;-60
2021/09/19 21:18:49;;;;;;;1999.90;999.90;;;;;;;15.16;62.08;101463.97;15556135;28;20073;-60
2021/09/19 21:26:21;;;;;;;;;;;;;;;15.29;62.15;101474.06;15556552;28;20515;-60
2021/09/19 21:33:55;;;;;;;1999.90;999.90;;;;;;;15.19;61.74;101471.69;15555175;28;19921;-61
2021/09/19 21:41:28;;;;;;;1999.90;999.90;;;;;;;15.18;61.58;101476.50;15537374;28;20045;-58
2021/09/19 21:49:18;;;;;;;1999.90;999.90;;;;;;;14.87;62.32;101476.13;15535871;28;20128;-60
2021/09/19 21:56:50;;;;;;;1999.90;999.90;;;;;;;15.28;61.69;101480.88;15536598;28;20046;-60
2021/09/19 22:05:04;;;;;;;1999.90;999.90;;;;;;;15.31;62.82;101471.72;15554442;28;20120;-59
2021/09/19 22:12:46;;;;;;;1999.90;999.90;;;;;;;15.27;63.02;101468.81;15519068;28;20042;-59
2021/09/19 22:20:23;;;;;;;1999.90;999.90;;;;;;;15.02;62.05;101465.09;15554599;28;20046;-60
2021/09/19 22:28:03;;;;;;;1999.90;999.90;;;;;;;14.98;62.52;101472.56;15553942;28;20124;-58
2021/09/19 22:35:35;;;;;;;1999.90;999.90;;;;;;;14.79;62.03;101475.03;15519587;28;20118;-59
2021/09/19 22:43:08;;;;;;;1999.90;999.90;;;;;;;14.63;61.96;101469.22;15559657;28;20096;-57
2021/09/19 22:50:49;;;;;;;1999.90;999.90;;;;;;;14.85;61.07;101468.06;15565470;28;20088;-56
2021/09/19 22:58:25;;;;;;;1999.90;999.90;;;;;;;14.69;60.22;101475.44;15547918;28;20045;-59
2021/09/19 23:05:57;;;;;;;1999.90;999.90;;;;;;;14.88;61.05;101484.22;15596913;28;20496;-58
2021/09/19 23:13:31;;;;;;;1999.90;999.90;;;;;;;14.68;61.14;101479.44;15545975;28;20065;-59
2021/09/19 23:21:05;;;;;;;1999.90;999.90;;;;;;;14.61;61.16;101479.16;15558677;28;20482;-59
2021/09/19 23:28:39;;;;;;;1999.90;999.90;;;;;;;14.63;61.13;101477.66;15592190;28;20103;-57
2021/09/19 23:36:11;;;;;;;1999.90;999.90;;;;;;;14.85;61.78;101479.28;15586514;28;20037;-59
2021/09/19 23:43:45;;;;;;;1999.90;999.90;;;;;;;14.59;62.54;101479.53;15559742;28;20112;-60
2021/09/19 23:51:17;;;;;;;1999.90;999.90;;;;;;;14.26;63.14;101482.16;15568682;28;20395;-59
2021/09/19 23:58:51;;;;;;;1999.90;999.90;;;;;;;14.57;62.93;101472.56;15575986;28;20054;-59
